Terminal Aerodrome Forecast
Issued by NWS

Home | Current Version | Previous Version | Graphics & Text | Print | Product List | Glossary On
Versions: 1 2 3 4 5 6 7 8 9 10 11 12 13 14
126
FTUS45 KGGW 221720
TAFSDY
TAF
KSDY 221720Z 2218/2318 28015KT P6SM SCT140
     FM230000 VRB03KT P6SM SCT140
     FM230800 21004KT 4SM BR SCT070 WS020/29030KT
     FM231700 23009KT P6SM SCT045 WS020/27035KT=

USA.gov is the U.S. government's official web portal to all federal, state and local government web resources and services.